sensor_id;sensor_type;location;lat;lon;timestamp;temperature;humidity
77039;DHT22;65970;50.476;4.840;2023-07-31T00:04:14;20.60;32.30
77039;DHT22;65970;50.476;4.840;2023-07-31T00:09:14;20.60;32.40
77039;DHT22;65970;50.476;4.840;2023-07-31T00:14:15;20.60;32.30
77039;DHT22;65970;50.476;4.840;2023-07-31T00:19:15;20.60;32.80
77039;DHT22;65970;50.476;4.840;2023-07-31T00:24:16;20.50;32.20
77039;DHT22;65970;50.476;4.840;2023-07-31T00:29:16;20.60;32.30
77039;DHT22;65970;50.476;4.840;2023-07-31T00:34:17;20.60;31.90
77039;DHT22;65970;50.476;4.840;2023-07-31T00:39:17;20.50;32.10
77039;DHT22;65970;50.476;4.840;2023-07-31T00:44:18;20.50;32.40
77039;DHT22;65970;50.476;4.840;2023-07-31T00:49:19;20.50;32.80
77039;DHT22;65970;50.476;4.840;2023-07-31T00:54:20;20.50;32.40
77039;DHT22;65970;50.476;4.840;2023-07-31T00:59:21;20.50;32.20
77039;DHT22;65970;50.476;4.840;2023-07-31T01:04:21;20.40;31.80
77039;DHT22;65970;50.476;4.840;2023-07-31T01:15:09;20.40;32.20
77039;DHT22;65970;50.476;4.840;2023-07-31T01:20:22;20.40;31.40
77039;DHT22;65970;50.476;4.840;2023-07-31T01:30:47;20.40;32.70
77039;DHT22;65970;50.476;4.840;2023-07-31T01:35:48;20.40;31.40
77039;DHT22;65970;50.476;4.840;2023-07-31T01:40:53;20.40;31.90
77039;DHT22;65970;50.476;4.840;2023-07-31T01:45:54;20.40;31.90
77039;DHT22;65970;50.476;4.840;2023-07-31T01:50:54;20.30;31.60
77039;DHT22;65970;50.476;4.840;2023-07-31T01:55:55;20.30;31.40
77039;DHT22;65970;50.476;4.840;2023-07-31T02:00:55;20.30;31.90
77039;DHT22;65970;50.476;4.840;2023-07-31T02:05:56;20.30;32.50
77039;DHT22;65970;50.476;4.840;2023-07-31T02:10:56;20.30;32.10
77039;DHT22;65970;50.476;4.840;2023-07-31T02:15:57;20.30;32.70
77039;DHT22;65970;50.476;4.840;2023-07-31T02:20:57;20.30;32.20
77039;DHT22;65970;50.476;4.840;2023-07-31T02:25:58;20.30;32.00
77039;DHT22;65970;50.476;4.840;2023-07-31T02:30:58;20.20;32.40
77039;DHT22;65970;50.476;4.840;2023-07-31T02:35:59;20.20;31.50
77039;DHT22;65970;50.476;4.840;2023-07-31T02:41:00;20.20;32.00
77039;DHT22;65970;50.476;4.840;2023-07-31T02:46:00;20.20;32.20
77039;DHT22;65970;50.476;4.840;2023-07-31T02:51:01;20.20;32.00
77039;DHT22;65970;50.476;4.840;2023-07-31T02:56:01;20.20;32.20
77039;DHT22;65970;50.476;4.840;2023-07-31T03:01:02;20.20;31.70
77039;DHT22;65970;50.476;4.840;2023-07-31T03:06:02;20.20;31.00
77039;DHT22;65970;50.476;4.840;2023-07-31T03:11:03;20.20;31.00
77039;DHT22;65970;50.476;4.840;2023-07-31T03:16:03;20.10;31.50
77039;DHT22;65970;50.476;4.840;2023-07-31T03:21:04;20.10;31.40
77039;DHT22;65970;50.476;4.840;2023-07-31T03:26:07;20.10;31.00
77039;DHT22;65970;50.476;4.840;2023-07-31T03:31:08;20.10;31.10
77039;DHT22;65970;50.476;4.840;2023-07-31T03:36:08;20.10;30.80
77039;DHT22;65970;50.476;4.840;2023-07-31T03:41:09;20.10;30.90
77039;DHT22;65970;50.476;4.840;2023-07-31T03:46:09;20.10;30.60
77039;DHT22;65970;50.476;4.840;2023-07-31T03:51:10;20.10;30.80
77039;DHT22;65970;50.476;4.840;2023-07-31T03:56:11;20.00;30.50
77039;DHT22;65970;50.476;4.840;2023-07-31T04:01:11;20.10;30.80
77039;DHT22;65970;50.476;4.840;2023-07-31T04:06:12;20.00;30.70
77039;DHT22;65970;50.476;4.840;2023-07-31T04:11:13;20.00;31.10
77039;DHT22;65970;50.476;4.840;2023-07-31T04:16:13;20.00;31.60
77039;DHT22;65970;50.476;4.840;2023-07-31T04:21:14;20.00;31.40
77039;DHT22;65970;50.476;4.840;2023-07-31T04:26:14;20.00;31.10
77039;DHT22;65970;50.476;4.840;2023-07-31T04:31:15;20.00;31.10
77039;DHT22;65970;50.476;4.840;2023-07-31T04:36:15;20.00;30.40
77039;DHT22;65970;50.476;4.840;2023-07-31T04:41:16;20.00;31.30
77039;DHT22;65970;50.476;4.840;2023-07-31T04:46:16;20.00;31.50
77039;DHT22;65970;50.476;4.840;2023-07-31T04:51:17;20.00;31.10
77039;DHT22;65970;50.476;4.840;2023-07-31T04:56:18;19.90;31.00
77039;DHT22;65970;50.476;4.840;2023-07-31T05:01:18;20.00;31.60
77039;DHT22;65970;50.476;4.840;2023-07-31T05:06:19;20.00;30.60
77039;DHT22;65970;50.476;4.840;2023-07-31T05:11:19;19.90;31.20
77039;DHT22;65970;50.476;4.840;2023-07-31T05:16:20;19.90;31.40
77039;DHT22;65970;50.476;4.840;2023-07-31T05:21:20;19.90;31.20
77039;DHT22;65970;50.476;4.840;2023-07-31T05:26:21;19.90;31.80
77039;DHT22;65970;50.476;4.840;2023-07-31T05:31:21;19.90;31.20
77039;DHT22;65970;50.476;4.840;2023-07-31T05:36:22;19.90;31.50
77039;DHT22;65970;50.476;4.840;2023-07-31T05:41:23;19.90;31.60
77039;DHT22;65970;50.476;4.840;2023-07-31T05:46:23;19.90;31.20
77039;DHT22;65970;50.476;4.840;2023-07-31T05:51:24;19.90;31.10
77039;DHT22;65970;50.476;4.840;2023-07-31T05:56:24;19.90;31.30
77039;DHT22;65970;50.476;4.840;2023-07-31T06:01:25;19.80;31.20
77039;DHT22;65970;50.476;4.840;2023-07-31T06:06:26;19.80;31.70
77039;DHT22;65970;50.476;4.840;2023-07-31T06:11:26;19.90;31.30
77039;DHT22;65970;50.476;4.840;2023-07-31T06:16:27;19.80;31.50
77039;DHT22;65970;50.476;4.840;2023-07-31T06:21:27;19.80;31.40
77039;DHT22;65970;50.476;4.840;2023-07-31T06:26:28;19.90;31.90
77039;DHT22;65970;50.476;4.840;2023-07-31T06:31:28;19.80;31.60
77039;DHT22;65970;50.476;4.840;2023-07-31T06:36:29;19.80;31.40
77039;DHT22;65970;50.476;4.840;2023-07-31T06:41:29;19.80;32.20
77039;DHT22;65970;50.476;4.840;2023-07-31T06:46:30;19.80;31.70
77039;DHT22;65970;50.476;4.840;2023-07-31T06:51:30;19.80;32.10
77039;DHT22;65970;50.476;4.840;2023-07-31T06:56:31;19.80;31.80
77039;DHT22;65970;50.476;4.840;2023-07-31T07:01:32;19.80;32.60
77039;DHT22;65970;50.476;4.840;2023-07-31T07:06:32;19.80;32.50
77039;DHT22;65970;50.476;4.840;2023-07-31T07:11:33;19.80;32.20
77039;DHT22;65970;50.476;4.840;2023-07-31T07:16:33;19.80;31.90
77039;DHT22;65970;50.476;4.840;2023-07-31T07:21:34;19.80;32.10
77039;DHT22;65970;50.476;4.840;2023-07-31T07:26:34;19.80;31.90
77039;DHT22;65970;50.476;4.840;2023-07-31T07:31:35;19.70;32.20
77039;DHT22;65970;50.476;4.840;2023-07-31T07:36:35;19.70;32.10
77039;DHT22;65970;50.476;4.840;2023-07-31T07:41:36;19.70;32.10
77039;DHT22;65970;50.476;4.840;2023-07-31T07:46:36;19.70;32.10
77039;DHT22;65970;50.476;4.840;2023-07-31T07:51:37;19.80;31.60
77039;DHT22;65970;50.476;4.840;2023-07-31T07:56:37;19.80;32.30
77039;DHT22;65970;50.476;4.840;2023-07-31T08:01:38;19.80;31.90
77039;DHT22;65970;50.476;4.840;2023-07-31T08:06:38;19.80;32.30
77039;DHT22;65970;50.476;4.840;2023-07-31T08:11:39;19.80;31.40
77039;DHT22;65970;50.476;4.840;2023-07-31T08:16:40;19.80;32.60
77039;DHT22;65970;50.476;4.840;2023-07-31T08:21:40;19.80;32.60
77039;DHT22;65970;50.476;4.840;2023-07-31T08:26:41;19.80;32.70
77039;DHT22;65970;50.476;4.840;2023-07-31T08:31:41;19.80;33.10
77039;DHT22;65970;50.476;4.840;2023-07-31T08:36:42;19.80;33.20
77039;DHT22;65970;50.476;4.840;2023-07-31T08:41:43;19.80;33.40
77039;DHT22;65970;50.476;4.840;2023-07-31T08:46:44;19.80;33.20
77039;DHT22;65970;50.476;4.840;2023-07-31T08:51:46;19.80;33.30
77039;DHT22;65970;50.476;4.840;2023-07-31T08:56:49;19.80;33.50
77039;DHT22;65970;50.476;4.840;2023-07-31T09:01:53;19.80;33.70
77039;DHT22;65970;50.476;4.840;2023-07-31T09:07:00;19.80;33.90
77039;DHT22;65970;50.476;4.840;2023-07-31T09:12:01;19.80;33.30
77039;DHT22;65970;50.476;4.840;2023-07-31T09:17:02;19.80;33.70
77039;DHT22;65970;50.476;4.840;2023-07-31T09:22:03;19.80;34.10
77039;DHT22;65970;50.476;4.840;2023-07-31T09:27:07;19.80;33.60
77039;DHT22;65970;50.476;4.840;2023-07-31T09:32:16;19.80;34.60
77039;DHT22;65970;50.476;4.840;2023-07-31T09:37:16;19.80;34.30
77039;DHT22;65970;50.476;4.840;2023-07-31T09:42:26;19.80;34.60
77039;DHT22;65970;50.476;4.840;2023-07-31T09:47:28;19.80;34.60
77039;DHT22;65970;50.476;4.840;2023-07-31T09:52:28;19.80;34.50
77039;DHT22;65970;50.476;4.840;2023-07-31T09:57:30;19.80;34.40
77039;DHT22;65970;50.476;4.840;2023-07-31T10:02:32;19.90;34.40
77039;DHT22;65970;50.476;4.840;2023-07-31T10:07:37;19.90;34.30
77039;DHT22;65970;50.476;4.840;2023-07-31T10:12:38;19.90;34.20
77039;DHT22;65970;50.476;4.840;2023-07-31T10:17:39;19.90;34.70
77039;DHT22;65970;50.476;4.840;2023-07-31T10:22:40;19.90;34.60
77039;DHT22;65970;50.476;4.840;2023-07-31T10:27:42;20.00;34.60
77039;DHT22;65970;50.476;4.840;2023-07-31T10:32:43;20.00;34.40
77039;DHT22;65970;50.476;4.840;2023-07-31T10:37:44;20.00;34.70
77039;DHT22;65970;50.476;4.840;2023-07-31T10:42:47;20.10;34.50
77039;DHT22;65970;50.476;4.840;2023-07-31T10:47:48;20.10;34.80
77039;DHT22;65970;50.476;4.840;2023-07-31T10:52:51;20.10;34.60
77039;DHT22;65970;50.476;4.840;2023-07-31T10:57:53;20.20;34.20
77039;DHT22;65970;50.476;4.840;2023-07-31T11:03:01;20.20;34.50
77039;DHT22;65970;50.476;4.840;2023-07-31T11:08:16;20.20;34.90
77039;DHT22;65970;50.476;4.840;2023-07-31T11:13:17;20.30;35.10
77039;DHT22;65970;50.476;4.840;2023-07-31T11:18:18;20.30;35.00
77039;DHT22;65970;50.476;4.840;2023-07-31T11:23:19;20.40;34.70
77039;DHT22;65970;50.476;4.840;2023-07-31T11:28:20;20.40;35.30
77039;DHT22;65970;50.476;4.840;2023-07-31T11:33:20;20.40;34.80
77039;DHT22;65970;50.476;4.840;2023-07-31T11:38:28;20.50;34.90
77039;DHT22;65970;50.476;4.840;2023-07-31T11:43:31;20.50;34.90
77039;DHT22;65970;50.476;4.840;2023-07-31T11:48:34;20.50;35.00
77039;DHT22;65970;50.476;4.840;2023-07-31T11:58:51;20.60;34.30
77039;DHT22;65970;50.476;4.840;2023-07-31T12:03:53;20.60;34.10
77039;DHT22;65970;50.476;4.840;2023-07-31T12:09:04;20.60;34.30
77039;DHT22;65970;50.476;4.840;2023-07-31T12:14:04;20.60;34.00
77039;DHT22;65970;50.476;4.840;2023-07-31T12:19:06;20.70;34.90
77039;DHT22;65970;50.476;4.840;2023-07-31T12:24:07;20.70;34.10
77039;DHT22;65970;50.476;4.840;2023-07-31T12:29:07;20.70;34.10
77039;DHT22;65970;50.476;4.840;2023-07-31T12:34:16;20.70;33.90
77039;DHT22;65970;50.476;4.840;2023-07-31T12:39:17;20.80;35.10
77039;DHT22;65970;50.476;4.840;2023-07-31T12:44:17;20.80;34.20
77039;DHT22;65970;50.476;4.840;2023-07-31T12:49:18;20.80;33.90
77039;DHT22;65970;50.476;4.840;2023-07-31T12:54:18;20.90;34.30
77039;DHT22;65970;50.476;4.840;2023-07-31T12:59:19;20.90;33.90
77039;DHT22;65970;50.476;4.840;2023-07-31T13:04:19;20.90;33.90
77039;DHT22;65970;50.476;4.840;2023-07-31T13:09:20;20.90;34.10
77039;DHT22;65970;50.476;4.840;2023-07-31T13:14:20;20.90;33.70
77039;DHT22;65970;50.476;4.840;2023-07-31T13:19:21;20.90;34.10
77039;DHT22;65970;50.476;4.840;2023-07-31T13:24:21;20.90;33.90
77039;DHT22;65970;50.476;4.840;2023-07-31T13:29:22;20.90;33.80
77039;DHT22;65970;50.476;4.840;2023-07-31T13:34:23;20.90;33.90
77039;DHT22;65970;50.476;4.840;2023-07-31T13:39:23;20.90;34.30
77039;DHT22;65970;50.476;4.840;2023-07-31T13:44:24;21.00;34.00
77039;DHT22;65970;50.476;4.840;2023-07-31T13:49:24;21.00;34.30
77039;DHT22;65970;50.476;4.840;2023-07-31T13:54:25;21.00;34.80
77039;DHT22;65970;50.476;4.840;2023-07-31T13:59:26;20.90;35.30
77039;DHT22;65970;50.476;4.840;2023-07-31T14:04:26;20.90;34.90
77039;DHT22;65970;50.476;4.840;2023-07-31T14:09:27;20.90;34.90
77039;DHT22;65970;50.476;4.840;2023-07-31T14:14:27;20.90;35.10
77039;DHT22;65970;50.476;4.840;2023-07-31T14:19:28;20.90;35.50
77039;DHT22;65970;50.476;4.840;2023-07-31T14:24:28;20.90;35.30
77039;DHT22;65970;50.476;4.840;2023-07-31T14:29:29;20.80;35.30
77039;DHT22;65970;50.476;4.840;2023-07-31T14:34:30;20.80;35.60
77039;DHT22;65970;50.476;4.840;2023-07-31T14:39:31;20.80;36.00
77039;DHT22;65970;50.476;4.840;2023-07-31T14:44:31;20.80;35.90
77039;DHT22;65970;50.476;4.840;2023-07-31T14:49:32;20.80;36.60
77039;DHT22;65970;50.476;4.840;2023-07-31T14:54:32;20.80;35.90
77039;DHT22;65970;50.476;4.840;2023-07-31T14:59:33;20.80;36.80
77039;DHT22;65970;50.476;4.840;2023-07-31T15:04:33;20.80;36.80
77039;DHT22;65970;50.476;4.840;2023-07-31T15:09:34;20.80;36.30
77039;DHT22;65970;50.476;4.840;2023-07-31T15:14:34;20.80;36.60
77039;DHT22;65970;50.476;4.840;2023-07-31T15:19:35;20.80;36.70
77039;DHT22;65970;50.476;4.840;2023-07-31T15:24:35;20.80;37.40
77039;DHT22;65970;50.476;4.840;2023-07-31T15:29:36;20.80;36.00
77039;DHT22;65970;50.476;4.840;2023-07-31T15:34:36;20.80;37.10
77039;DHT22;65970;50.476;4.840;2023-07-31T15:39:37;20.80;36.80
77039;DHT22;65970;50.476;4.840;2023-07-31T15:44:37;20.80;37.90
77039;DHT22;65970;50.476;4.840;2023-07-31T15:49:38;20.80;38.00
77039;DHT22;65970;50.476;4.840;2023-07-31T15:54:39;20.70;37.40
77039;DHT22;65970;50.476;4.840;2023-07-31T15:59:39;20.70;37.60
77039;DHT22;65970;50.476;4.840;2023-07-31T16:04:40;20.70;38.10
77039;DHT22;65970;50.476;4.840;2023-07-31T16:09:40;20.70;37.40
77039;DHT22;65970;50.476;4.840;2023-07-31T16:14:41;20.70;38.40
77039;DHT22;65970;50.476;4.840;2023-07-31T16:19:41;20.70;37.90
77039;DHT22;65970;50.476;4.840;2023-07-31T16:24:42;20.70;37.90
77039;DHT22;65970;50.476;4.840;2023-07-31T16:29:43;20.60;38.30
77039;DHT22;65970;50.476;4.840;2023-07-31T16:34:43;20.60;38.20
77039;DHT22;65970;50.476;4.840;2023-07-31T16:39:44;20.60;38.20
77039;DHT22;65970;50.476;4.840;2023-07-31T16:44:44;20.60;37.50
77039;DHT22;65970;50.476;4.840;2023-07-31T16:49:45;20.60;38.30
77039;DHT22;65970;50.476;4.840;2023-07-31T16:54:46;20.60;37.10
77039;DHT22;65970;50.476;4.840;2023-07-31T16:59:47;20.60;37.80
77039;DHT22;65970;50.476;4.840;2023-07-31T17:04:47;20.60;38.30
77039;DHT22;65970;50.476;4.840;2023-07-31T17:09:48;20.60;38.10
77039;DHT22;65970;50.476;4.840;2023-07-31T17:14:48;20.60;37.80
77039;DHT22;65970;50.476;4.840;2023-07-31T17:19:49;20.50;37.10
77039;DHT22;65970;50.476;4.840;2023-07-31T17:24:50;20.50;37.80
77039;DHT22;65970;50.476;4.840;2023-07-31T17:29:50;20.50;37.70
77039;DHT22;65970;50.476;4.840;2023-07-31T17:34:51;20.50;38.40
77039;DHT22;65970;50.476;4.840;2023-07-31T17:39:51;20.50;39.10
77039;DHT22;65970;50.476;4.840;2023-07-31T17:44:52;20.50;38.20
77039;DHT22;65970;50.476;4.840;2023-07-31T17:49:53;20.50;38.70
77039;DHT22;65970;50.476;4.840;2023-07-31T17:54:53;20.50;39.20
77039;DHT22;65970;50.476;4.840;2023-07-31T17:59:54;20.50;39.00
77039;DHT22;65970;50.476;4.840;2023-07-31T18:04:54;20.50;37.70
77039;DHT22;65970;50.476;4.840;2023-07-31T18:09:55;20.50;37.70
77039;DHT22;65970;50.476;4.840;2023-07-31T18:14:56;20.50;38.40
77039;DHT22;65970;50.476;4.840;2023-07-31T18:19:56;20.50;38.20
77039;DHT22;65970;50.476;4.840;2023-07-31T18:24:57;20.50;38.60
77039;DHT22;65970;50.476;4.840;2023-07-31T18:29:57;20.40;38.30
77039;DHT22;65970;50.476;4.840;2023-07-31T18:34:58;20.40;37.70
77039;DHT22;65970;50.476;4.840;2023-07-31T18:39:58;20.40;37.50
77039;DHT22;65970;50.476;4.840;2023-07-31T18:44:59;20.40;37.30
77039;DHT22;65970;50.476;4.840;2023-07-31T18:49:59;20.40;36.90
77039;DHT22;65970;50.476;4.840;2023-07-31T18:55:00;20.40;37.30
77039;DHT22;65970;50.476;4.840;2023-07-31T19:00:01;20.40;37.00
77039;DHT22;65970;50.476;4.840;2023-07-31T19:05:02;20.40;36.90
77039;DHT22;65970;50.476;4.840;2023-07-31T19:10:03;20.40;38.40
77039;DHT22;65970;50.476;4.840;2023-07-31T19:15:04;20.40;38.20
77039;DHT22;65970;50.476;4.840;2023-07-31T19:20:05;20.30;37.70
77039;DHT22;65970;50.476;4.840;2023-07-31T19:25:06;20.40;37.10
77039;DHT22;65970;50.476;4.840;2023-07-31T19:30:07;20.40;36.10
77039;DHT22;65970;50.476;4.840;2023-07-31T19:35:08;20.40;37.20
77039;DHT22;65970;50.476;4.840;2023-07-31T19:40:09;20.40;37.60
77039;DHT22;65970;50.476;4.840;2023-07-31T19:45:10;20.30;37.50
77039;DHT22;65970;50.476;4.840;2023-07-31T19:50:10;20.30;37.50
77039;DHT22;65970;50.476;4.840;2023-07-31T19:55:11;20.40;38.20
77039;DHT22;65970;50.476;4.840;2023-07-31T20:00:12;20.30;37.60
77039;DHT22;65970;50.476;4.840;2023-07-31T20:05:12;20.30;37.00
77039;DHT22;65970;50.476;4.840;2023-07-31T20:10:13;20.30;37.40
77039;DHT22;65970;50.476;4.840;2023-07-31T20:15:21;20.30;37.10
77039;DHT22;65970;50.476;4.840;2023-07-31T20:20:23;20.30;36.10
77039;DHT22;65970;50.476;4.840;2023-07-31T20:25:24;20.30;37.10
77039;DHT22;65970;50.476;4.840;2023-07-31T20:30:24;20.30;37.90
77039;DHT22;65970;50.476;4.840;2023-07-31T20:35:25;20.30;37.90
77039;DHT22;65970;50.476;4.840;2023-07-31T20:40:25;20.30;37.60
77039;DHT22;65970;50.476;4.840;2023-07-31T20:45:27;20.30;37.90
77039;DHT22;65970;50.476;4.840;2023-07-31T20:50:28;20.30;37.30
77039;DHT22;65970;50.476;4.840;2023-07-31T20:55:29;20.30;38.10
77039;DHT22;65970;50.476;4.840;2023-07-31T21:00:29;20.30;37.60
77039;DHT22;65970;50.476;4.840;2023-07-31T21:05:30;20.30;37.40
77039;DHT22;65970;50.476;4.840;2023-07-31T21:10:30;20.30;37.50
77039;DHT22;65970;50.476;4.840;2023-07-31T21:15:31;20.30;38.00
77039;DHT22;65970;50.476;4.840;2023-07-31T21:20:31;20.20;37.20
77039;DHT22;65970;50.476;4.840;2023-07-31T21:25:33;20.30;38.70
77039;DHT22;65970;50.476;4.840;2023-07-31T21:30:34;20.30;39.90
77039;DHT22;65970;50.476;4.840;2023-07-31T21:35:34;20.30;38.10
77039;DHT22;65970;50.476;4.840;2023-07-31T21:40:35;20.30;38.30
77039;DHT22;65970;50.476;4.840;2023-07-31T21:45:35;20.20;38.50
77039;DHT22;65970;50.476;4.840;2023-07-31T21:50:36;20.20;37.60
77039;DHT22;65970;50.476;4.840;2023-07-31T21:55:36;20.30;38.50
77039;DHT22;65970;50.476;4.840;2023-07-31T22:00:37;20.20;37.40
77039;DHT22;65970;50.476;4.840;2023-07-31T22:05:37;20.20;37.80
77039;DHT22;65970;50.476;4.840;2023-07-31T22:10:38;20.20;38.40
77039;DHT22;65970;50.476;4.840;2023-07-31T22:15:39;20.20;37.80
77039;DHT22;65970;50.476;4.840;2023-07-31T22:20:39;20.20;37.60
77039;DHT22;65970;50.476;4.840;2023-07-31T22:25:40;20.20;38.30
77039;DHT22;65970;50.476;4.840;2023-07-31T22:30:40;20.20;37.50
77039;DHT22;65970;50.476;4.840;2023-07-31T22:35:41;20.10;37.10
77039;DHT22;65970;50.476;4.840;2023-07-31T22:40:42;20.20;37.10
77039;DHT22;65970;50.476;4.840;2023-07-31T22:45:46;20.20;37.40
77039;DHT22;65970;50.476;4.840;2023-07-31T22:50:47;20.20;36.90
77039;DHT22;65970;50.476;4.840;2023-07-31T22:55:47;20.20;36.70
77039;DHT22;65970;50.476;4.840;2023-07-31T23:00:48;20.20;37.60
77039;DHT22;65970;50.476;4.840;2023-07-31T23:05:49;20.20;37.20
77039;DHT22;65970;50.476;4.840;2023-07-31T23:10:50;20.20;37.00
77039;DHT22;65970;50.476;4.840;2023-07-31T23:15:50;20.20;36.80
77039;DHT22;65970;50.476;4.840;2023-07-31T23:20:52;20.20;36.40
77039;DHT22;65970;50.476;4.840;2023-07-31T23:25:52;20.10;37.30
77039;DHT22;65970;50.476;4.840;2023-07-31T23:30:59;20.20;37.10
77039;DHT22;65970;50.476;4.840;2023-07-31T23:36:08;20.20;37.40
77039;DHT22;65970;50.476;4.840;2023-07-31T23:41:09;20.20;37.80
77039;DHT22;65970;50.476;4.840;2023-07-31T23:46:09;20.20;36.90
77039;DHT22;65970;50.476;4.840;2023-07-31T23:51:10;20.20;37.10
77039;DHT22;65970;50.476;4.840;2023-07-31T23:56:12;20.20;37.50
